createdAt,value
2024-04-30T00:00:57.952Z,15.00
2024-04-30T00:03:26.391Z,15.00
2024-04-30T00:05:53.943Z,15.00
2024-04-30T00:08:21.480Z,15.00
2024-04-30T00:10:49.057Z,15.00
2024-04-30T00:13:16.613Z,14.90
2024-04-30T00:15:44.328Z,14.90
2024-04-30T00:18:11.904Z,14.90
2024-04-30T00:20:39.384Z,14.80
2024-04-30T00:23:06.919Z,14.80
2024-04-30T00:25:34.514Z,14.80
2024-04-30T00:28:02.082Z,14.90
2024-04-30T00:30:29.649Z,14.90
2024-04-30T00:32:57.223Z,14.90
2024-04-30T00:35:24.766Z,14.90
2024-04-30T00:37:52.332Z,14.90
2024-04-30T00:40:19.987Z,14.90
2024-04-30T00:42:47.562Z,14.80
2024-04-30T00:45:15.047Z,14.70
2024-04-30T00:47:42.720Z,14.60
2024-04-30T00:50:10.828Z,14.60
2024-04-30T00:52:38.954Z,14.50
2024-04-30T00:55:06.683Z,14.40
2024-04-30T00:57:34.297Z,14.40
2024-04-30T01:00:01.896Z,14.40
2024-04-30T01:02:29.510Z,14.40
2024-04-30T01:04:58.448Z,14.50
2024-04-30T01:07:25.998Z,14.50
2024-04-30T01:09:54.223Z,14.50
2024-04-30T01:12:23.573Z,14.50
2024-04-30T01:14:51.117Z,14.50
2024-04-30T01:17:18.657Z,14.50
2024-04-30T01:19:46.441Z,14.40
2024-04-30T01:22:14.021Z,14.40
2024-04-30T01:24:41.537Z,14.40
2024-04-30T01:27:09.053Z,14.40
2024-04-30T01:29:36.519Z,14.40
2024-04-30T01:32:04.316Z,14.40
2024-04-30T01:34:31.956Z,14.40
2024-04-30T01:36:59.758Z,14.40
2024-04-30T01:39:27.288Z,14.40
2024-04-30T01:41:54.777Z,14.50
2024-04-30T01:44:22.268Z,14.40
2024-04-30T01:46:49.791Z,14.50
2024-04-30T01:49:17.320Z,14.50
2024-04-30T01:51:44.890Z,14.50
2024-04-30T01:54:12.390Z,14.40
2024-04-30T01:56:39.856Z,14.40
2024-04-30T01:59:07.351Z,14.40
2024-04-30T02:01:35.638Z,14.30
2024-04-30T02:04:03.327Z,14.20
2024-04-30T02:06:30.862Z,14.20
2024-04-30T02:08:58.405Z,14.10
2024-04-30T02:11:26.689Z,14.10
2024-04-30T02:13:54.230Z,14.10
2024-04-30T02:16:21.863Z,14.10
2024-04-30T02:18:49.371Z,14.10
2024-04-30T02:21:16.855Z,14.10
2024-04-30T02:23:44.364Z,14.20
2024-04-30T02:26:11.908Z,14.30
2024-04-30T02:28:40.394Z,14.30
2024-04-30T02:31:26.509Z,14.40
2024-04-30T02:34:12.802Z,14.40
2024-04-30T02:36:40.384Z,14.40
2024-04-30T02:39:08.309Z,14.40
2024-04-30T02:41:35.826Z,14.40
2024-04-30T02:44:03.346Z,14.30
2024-04-30T02:46:31.003Z,14.30
2024-04-30T02:48:58.648Z,14.20
2024-04-30T02:51:26.198Z,14.20
2024-04-30T02:53:53.706Z,14.10
2024-04-30T02:56:21.251Z,14.10
2024-04-30T02:58:48.833Z,14.00
2024-04-30T03:01:16.455Z,13.80
2024-04-30T03:03:44.765Z,13.80
2024-04-30T03:06:12.560Z,13.80
2024-04-30T03:08:41.241Z,13.70
2024-04-30T03:11:08.826Z,13.70
2024-04-30T03:13:36.424Z,13.60
2024-04-30T03:16:04.818Z,13.60
2024-04-30T03:18:32.382Z,13.50
2024-04-30T03:21:00.170Z,13.40
2024-04-30T03:23:27.696Z,13.30
2024-04-30T03:25:55.185Z,13.30
2024-04-30T03:28:22.776Z,13.10
2024-04-30T03:30:53.088Z,13.00
2024-04-30T03:33:21.472Z,12.90
2024-04-30T03:35:49.000Z,12.80
2024-04-30T03:38:16.537Z,12.80
2024-04-30T03:40:44.144Z,12.80
2024-04-30T03:43:11.666Z,12.80
2024-04-30T03:45:40.056Z,12.80
2024-04-30T03:48:08.010Z,12.80
2024-04-30T03:50:35.652Z,12.70
2024-04-30T03:53:03.182Z,12.70
2024-04-30T03:55:30.737Z,12.60
2024-04-30T03:57:58.242Z,12.50
2024-04-30T04:00:25.827Z,12.50
2024-04-30T04:02:53.409Z,12.50
2024-04-30T04:05:20.984Z,12.30
2024-04-30T04:07:48.533Z,12.30
2024-04-30T04:10:16.131Z,12.30
2024-04-30T04:13:02.216Z,12.20
2024-04-30T04:15:29.744Z,12.10
2024-04-30T04:17:57.300Z,12.10
2024-04-30T04:20:24.860Z,12.00
2024-04-30T04:22:53.471Z,12.00
2024-04-30T04:25:21.001Z,12.00
2024-04-30T04:27:48.517Z,12.00
2024-04-30T04:30:17.977Z,12.10
2024-04-30T04:32:45.927Z,12.10
2024-04-30T04:35:13.617Z,12.00
2024-04-30T04:37:41.198Z,11.90
2024-04-30T04:40:09.106Z,11.90
2024-04-30T04:42:36.631Z,11.90
2024-04-30T04:45:04.300Z,11.90
2024-04-30T04:47:31.914Z,11.90
2024-04-30T04:49:59.501Z,11.90
2024-04-30T04:52:27.026Z,11.90
2024-04-30T04:54:54.511Z,12.00
2024-04-30T04:57:22.021Z,12.00
2024-04-30T04:59:49.509Z,11.90
2024-04-30T05:02:17.107Z,11.90
2024-04-30T05:04:44.740Z,11.90
2024-04-30T05:07:12.353Z,11.90
2024-04-30T05:09:39.903Z,12.00
2024-04-30T05:12:07.529Z,12.10
2024-04-30T05:14:35.041Z,12.20
2024-04-30T05:17:02.602Z,12.20
2024-04-30T05:19:30.172Z,12.40
2024-04-30T05:21:57.768Z,12.50
2024-04-30T05:24:25.311Z,12.70
2024-04-30T05:26:52.819Z,12.80
2024-04-30T05:29:20.304Z,13.00
2024-04-30T05:31:47.852Z,13.10
2024-04-30T05:34:15.430Z,13.30
2024-04-30T05:36:42.956Z,13.40
2024-04-30T05:39:10.436Z,13.60
2024-04-30T05:41:37.921Z,13.70
2024-04-30T05:44:05.442Z,13.90
2024-04-30T05:46:33.091Z,14.10
2024-04-30T05:49:00.674Z,14.30
2024-04-30T05:51:28.197Z,14.50
2024-04-30T05:53:56.580Z,14.70
2024-04-30T05:56:24.187Z,14.90
2024-04-30T05:58:51.693Z,15.10
2024-04-30T06:01:19.245Z,15.30
2024-04-30T06:03:46.860Z,15.40
2024-04-30T06:06:14.560Z,15.60
2024-04-30T06:08:42.133Z,15.70
2024-04-30T06:11:09.842Z,15.90
2024-04-30T06:13:37.524Z,16.00
2024-04-30T06:16:05.563Z,16.20
2024-04-30T06:18:33.174Z,16.30
2024-04-30T06:21:00.762Z,16.40
2024-04-30T06:23:28.269Z,16.60
2024-04-30T06:25:55.810Z,16.70
2024-04-30T06:28:23.366Z,16.80
2024-04-30T06:30:51.053Z,17.00
2024-04-30T06:33:18.802Z,17.10
2024-04-30T06:35:46.400Z,17.30
2024-04-30T06:38:14.087Z,17.40
2024-04-30T06:40:41.792Z,17.60
2024-04-30T06:43:09.403Z,17.70
2024-04-30T06:45:36.943Z,17.80
2024-04-30T06:48:05.767Z,17.90
2024-04-30T06:50:35.212Z,18.10
2024-04-30T06:53:02.767Z,18.20
2024-04-30T06:55:30.295Z,18.40
2024-04-30T06:57:57.798Z,18.50
2024-04-30T07:00:25.343Z,18.60
2024-04-30T07:02:52.924Z,18.70
2024-04-30T07:05:20.667Z,18.80
2024-04-30T07:07:48.203Z,18.90
2024-04-30T07:10:15.935Z,19.00
2024-04-30T07:12:43.434Z,19.20
2024-04-30T07:15:10.959Z,19.30
2024-04-30T07:17:41.642Z,19.40
2024-04-30T07:20:09.822Z,19.50
2024-04-30T07:22:37.427Z,19.60
2024-04-30T07:25:05.424Z,19.70
2024-04-30T07:27:33.159Z,19.80
2024-04-30T07:30:00.686Z,20.00
2024-04-30T07:32:29.257Z,20.10
2024-04-30T07:34:57.199Z,20.20
2024-04-30T07:37:25.096Z,20.30
2024-04-30T07:39:52.673Z,20.40
2024-04-30T07:42:20.170Z,20.50
2024-04-30T07:44:47.750Z,20.60
2024-04-30T07:47:15.534Z,20.70
2024-04-30T07:49:43.180Z,20.80
2024-04-30T07:52:10.734Z,20.90
2024-04-30T07:54:38.287Z,21.10
2024-04-30T07:57:06.080Z,21.20
2024-04-30T07:59:33.612Z,21.20
2024-04-30T08:02:01.433Z,21.30
2024-04-30T08:04:29.039Z,21.40
2024-04-30T08:06:56.646Z,21.60
2024-04-30T08:09:24.194Z,21.70
2024-04-30T08:11:52.314Z,21.80
2024-04-30T08:14:19.844Z,21.90
2024-04-30T08:16:47.561Z,22.00
2024-04-30T08:19:15.252Z,22.10
2024-04-30T08:21:42.831Z,22.20
2024-04-30T08:24:10.418Z,22.40
2024-04-30T08:26:38.935Z,22.60
2024-04-30T08:29:06.524Z,22.70
2024-04-30T08:31:34.555Z,22.90
2024-04-30T08:34:02.082Z,23.10
2024-04-30T08:36:31.274Z,23.30
2024-04-30T08:39:00.272Z,23.40
2024-04-30T08:41:30.447Z,23.50
2024-04-30T08:44:00.359Z,23.60
2024-04-30T08:46:30.310Z,23.60
2024-04-30T08:48:59.113Z,23.70
2024-04-30T08:51:27.664Z,23.80
2024-04-30T08:53:55.456Z,24.00
2024-04-30T08:56:23.844Z,24.10
2024-04-30T08:58:51.405Z,24.20
2024-04-30T09:01:20.622Z,24.40
2024-04-30T09:03:48.734Z,24.40
2024-04-30T09:06:16.890Z,24.40
2024-04-30T09:08:47.632Z,24.60
2024-04-30T09:11:16.737Z,24.60
2024-04-30T09:13:45.145Z,24.60
2024-04-30T09:16:13.818Z,24.80
2024-04-30T09:18:51.412Z,24.90
2024-04-30T09:21:28.694Z,24.90
2024-04-30T09:24:11.707Z,24.90
2024-04-30T09:26:40.289Z,25.00
2024-04-30T09:29:07.939Z,25.00
2024-04-30T09:31:39.641Z,25.00
2024-04-30T09:34:08.957Z,25.10
2024-04-30T09:36:37.725Z,25.20
2024-04-30T09:39:09.254Z,25.20
2024-04-30T09:41:38.794Z,25.40
2024-04-30T09:44:07.367Z,25.40
2024-04-30T09:46:36.423Z,25.40
2024-04-30T09:49:07.922Z,25.40
2024-04-30T09:51:38.718Z,25.60
2024-04-30T09:54:06.969Z,25.70
2024-04-30T09:56:34.524Z,25.70
2024-04-30T09:59:02.156Z,25.70
2024-04-30T10:01:31.992Z,25.70
2024-04-30T10:04:01.558Z,25.70
2024-04-30T10:06:30.581Z,25.80
2024-04-30T10:08:58.730Z,25.90
2024-04-30T10:11:26.314Z,26.00
2024-04-30T10:13:55.643Z,26.00
2024-04-30T10:16:23.482Z,26.10
2024-04-30T10:19:02.655Z,26.20
2024-04-30T10:21:37.194Z,26.30
2024-04-30T10:24:18.318Z,26.40
2024-04-30T10:26:46.820Z,26.40
2024-04-30T10:29:14.918Z,26.40
2024-04-30T10:31:43.119Z,26.40
2024-04-30T10:34:14.129Z,26.40
2024-04-30T10:36:48.164Z,26.50
2024-04-30T10:39:26.533Z,26.60
2024-04-30T10:41:54.546Z,26.60
2024-04-30T10:44:22.085Z,26.40
2024-04-30T10:46:50.430Z,26.40
2024-04-30T10:49:21.473Z,26.30
2024-04-30T10:51:49.391Z,26.40
2024-04-30T10:54:19.742Z,26.40
2024-04-30T10:56:47.269Z,26.40
2024-04-30T10:59:14.805Z,26.40
2024-04-30T11:01:42.354Z,26.50
2024-04-30T11:04:13.720Z,26.60
2024-04-30T11:06:45.735Z,26.80
2024-04-30T11:09:15.463Z,26.80
2024-04-30T11:11:48.597Z,26.90
2024-04-30T11:14:17.307Z,26.80
2024-04-30T11:16:47.194Z,26.80
2024-04-30T11:19:15.448Z,26.80
2024-04-30T11:21:43.259Z,26.90
2024-04-30T11:24:10.932Z,26.90
2024-04-30T11:26:38.897Z,26.90
2024-04-30T11:29:23.449Z,27.00
2024-04-30T11:31:54.137Z,27.10
2024-04-30T11:34:21.643Z,27.20
2024-04-30T11:36:49.275Z,27.20
2024-04-30T11:39:16.979Z,27.20
2024-04-30T11:41:52.277Z,27.20
2024-04-30T11:44:28.678Z,27.10
2024-04-30T11:46:56.212Z,27.10
2024-04-30T11:49:23.772Z,27.30
2024-04-30T11:51:51.289Z,27.30
2024-04-30T11:54:18.790Z,27.40
2024-04-30T11:56:46.361Z,27.60
2024-04-30T11:59:13.937Z,27.70
2024-04-30T12:01:41.647Z,27.80
2024-04-30T12:04:09.213Z,27.80
2024-04-30T12:06:38.846Z,27.80
2024-04-30T12:09:06.828Z,27.90
2024-04-30T12:11:40.665Z,28.00
2024-04-30T12:14:08.218Z,28.00
2024-04-30T12:16:35.817Z,28.10
2024-04-30T12:19:04.983Z,28.20
2024-04-30T12:21:32.523Z,28.30
2024-04-30T12:24:00.153Z,28.30
2024-04-30T12:26:27.713Z,28.30
2024-04-30T12:28:55.231Z,28.30
2024-04-30T12:31:22.809Z,28.40
2024-04-30T12:33:50.387Z,28.30
2024-04-30T12:36:17.969Z,28.30
2024-04-30T12:38:45.481Z,28.40
2024-04-30T12:41:13.185Z,28.50
2024-04-30T12:43:40.799Z,28.60
2024-04-30T12:46:08.556Z,28.60
2024-04-30T12:48:36.217Z,28.50
2024-04-30T12:51:04.463Z,28.50
2024-04-30T12:53:31.996Z,28.40
2024-04-30T12:55:59.789Z,28.40
2024-04-30T12:58:28.023Z,28.40
2024-04-30T13:00:55.798Z,28.40
2024-04-30T13:03:23.406Z,28.40
2024-04-30T13:05:51.059Z,28.20
2024-04-30T13:08:19.247Z,27.90
2024-04-30T13:10:46.824Z,27.90
2024-04-30T13:13:14.673Z,27.90
2024-04-30T13:15:42.255Z,28.10
2024-04-30T13:18:09.785Z,28.20
2024-04-30T13:20:39.368Z,28.30
2024-04-30T13:23:06.890Z,28.30
2024-04-30T13:25:34.505Z,28.30
2024-04-30T13:28:02.299Z,28.30
2024-04-30T13:30:29.811Z,28.30
2024-04-30T13:32:57.351Z,28.30
2024-04-30T13:35:24.962Z,28.30
2024-04-30T13:37:52.569Z,28.30
2024-04-30T13:40:20.174Z,28.30
2024-04-30T13:42:47.863Z,28.40
2024-04-30T13:45:15.502Z,28.50
2024-04-30T13:47:43.101Z,28.50
2024-04-30T13:50:11.912Z,28.50
2024-04-30T13:52:39.491Z,28.40
2024-04-30T13:55:07.767Z,28.40
2024-04-30T13:57:35.303Z,28.40
2024-04-30T14:00:02.846Z,28.50
2024-04-30T14:02:38.251Z,28.60
2024-04-30T14:05:06.274Z,28.60
2024-04-30T14:07:33.931Z,28.60
2024-04-30T14:10:01.570Z,28.70
2024-04-30T14:12:29.156Z,28.50
2024-04-30T14:14:56.656Z,28.40
2024-04-30T14:17:24.181Z,28.40
2024-04-30T14:19:51.984Z,28.30
2024-04-30T14:22:19.613Z,28.10
2024-04-30T14:24:47.158Z,28.00
2024-04-30T14:27:14.776Z,28.10
2024-04-30T14:29:42.332Z,28.10
2024-04-30T14:32:10.395Z,28.10
2024-04-30T14:34:38.136Z,28.20
2024-04-30T14:37:05.802Z,28.30
2024-04-30T14:39:33.470Z,28.50
2024-04-30T14:42:01.176Z,28.60
2024-04-30T14:44:28.909Z,28.70
2024-04-30T14:46:56.493Z,28.90
2024-04-30T14:49:24.085Z,29.00
2024-04-30T14:51:51.623Z,29.20
2024-04-30T14:54:19.451Z,29.20
2024-04-30T14:56:47.163Z,29.20
2024-04-30T14:59:15.098Z,29.30
2024-04-30T15:01:45.650Z,29.20
2024-04-30T15:04:13.547Z,29.30
2024-04-30T15:06:41.305Z,29.20
2024-04-30T15:09:12.198Z,29.10
2024-04-30T15:11:39.761Z,29.00
2024-04-30T15:14:07.529Z,28.90
2024-04-30T15:16:35.450Z,28.80
2024-04-30T15:19:03.062Z,28.70
2024-04-30T15:21:30.556Z,28.60
2024-04-30T15:23:58.052Z,28.50
2024-04-30T15:26:25.599Z,28.40
2024-04-30T15:28:53.550Z,28.40
2024-04-30T15:31:21.623Z,28.40
2024-04-30T15:33:49.711Z,28.50
2024-04-30T15:36:17.355Z,28.50
2024-04-30T15:38:46.502Z,28.40
2024-04-30T15:41:23.802Z,28.40
2024-04-30T15:43:51.841Z,28.30
2024-04-30T15:46:19.709Z,28.20
2024-04-30T15:48:50.362Z,28.10
2024-04-30T15:51:18.449Z,28.00
2024-04-30T15:53:45.991Z,27.90
2024-04-30T15:56:18.279Z,27.80
2024-04-30T15:58:48.133Z,27.80
2024-04-30T16:01:16.359Z,27.70
2024-04-30T16:03:44.947Z,27.60
2024-04-30T16:06:14.078Z,27.50
2024-04-30T16:08:41.894Z,27.50
2024-04-30T16:11:11.310Z,27.40
2024-04-30T16:13:41.412Z,27.50
2024-04-30T16:16:16.246Z,27.60
2024-04-30T16:18:47.361Z,27.60
2024-04-30T16:21:16.266Z,27.60
2024-04-30T16:23:45.137Z,27.60
2024-04-30T16:26:12.782Z,27.40
2024-04-30T16:28:44.549Z,27.20
2024-04-30T16:31:15.416Z,27.00
2024-04-30T16:33:43.799Z,26.70
2024-04-30T16:36:20.585Z,26.50
2024-04-30T16:38:49.633Z,26.40
2024-04-30T16:41:17.412Z,26.30
2024-04-30T16:43:44.996Z,26.00
2024-04-30T16:46:12.597Z,26.00
2024-04-30T16:48:40.231Z,25.90
2024-04-30T16:51:13.155Z,25.90
2024-04-30T16:53:40.863Z,25.70
2024-04-30T16:56:08.379Z,25.70
2024-04-30T16:58:37.741Z,25.60
2024-04-30T17:01:05.378Z,25.60
2024-04-30T17:03:34.620Z,25.50
2024-04-30T17:06:06.242Z,25.50
2024-04-30T17:08:33.826Z,25.40
2024-04-30T17:11:01.407Z,25.40
2024-04-30T17:13:28.982Z,25.60
2024-04-30T17:15:56.630Z,25.70
2024-04-30T17:18:24.328Z,25.80
2024-04-30T17:20:51.850Z,25.80
2024-04-30T17:23:19.345Z,25.70
2024-04-30T17:25:46.880Z,25.70
2024-04-30T17:28:17.846Z,25.50
2024-04-30T17:30:45.412Z,25.40
2024-04-30T17:33:13.174Z,25.30
2024-04-30T17:35:40.887Z,25.20
2024-04-30T17:38:10.072Z,25.00
2024-04-30T17:40:37.587Z,24.80
2024-04-30T17:43:06.580Z,24.60
2024-04-30T17:45:34.228Z,24.50
2024-04-30T17:48:02.000Z,24.40
2024-04-30T17:50:29.602Z,24.30
2024-04-30T17:52:57.214Z,24.10
2024-04-30T17:55:24.759Z,24.00
2024-04-30T17:57:52.525Z,23.90
2024-04-30T18:00:20.308Z,23.70
2024-04-30T18:02:48.064Z,23.60
2024-04-30T18:05:15.683Z,23.50
2024-04-30T18:07:44.452Z,23.30
2024-04-30T18:10:14.844Z,23.20
2024-04-30T18:12:43.385Z,23.10
2024-04-30T18:15:16.033Z,23.00
2024-04-30T18:17:43.747Z,22.80
2024-04-30T18:20:11.407Z,22.60
2024-04-30T18:22:40.192Z,22.50
2024-04-30T18:25:08.144Z,22.40
2024-04-30T18:27:35.743Z,22.20
2024-04-30T18:30:04.924Z,22.00
2024-04-30T18:32:32.431Z,21.90
2024-04-30T18:35:01.167Z,21.80
2024-04-30T18:37:28.643Z,21.60
2024-04-30T18:39:56.240Z,21.50
2024-04-30T18:42:23.853Z,21.30
2024-04-30T18:44:51.820Z,21.20
2024-04-30T18:47:19.419Z,21.00
2024-04-30T18:49:47.047Z,20.90
2024-04-30T18:52:15.811Z,20.90
2024-04-30T18:54:43.437Z,20.80
2024-04-30T18:57:11.361Z,20.80
2024-04-30T18:59:38.886Z,20.70
2024-04-30T19:02:06.396Z,20.60
2024-04-30T19:04:34.651Z,20.50
2024-04-30T19:07:02.255Z,20.40
2024-04-30T19:09:29.844Z,20.30
2024-04-30T19:11:57.399Z,20.20
2024-04-30T19:14:24.904Z,20.10
2024-04-30T19:16:52.553Z,20.00
2024-04-30T19:19:21.480Z,20.00
2024-04-30T19:21:50.038Z,19.90
2024-04-30T19:24:19.608Z,19.80
2024-04-30T19:26:47.724Z,19.80
2024-04-30T19:29:15.383Z,19.70
2024-04-30T19:31:42.925Z,19.70
2024-04-30T19:34:11.345Z,19.60
2024-04-30T19:36:39.000Z,19.50
2024-04-30T19:39:06.567Z,19.40
2024-04-30T19:41:35.219Z,19.30
2024-04-30T19:44:02.911Z,19.20
2024-04-30T19:46:30.424Z,19.10
2024-04-30T19:48:58.540Z,19.00
2024-04-30T19:51:26.191Z,18.90
2024-04-30T19:53:53.793Z,18.80
2024-04-30T19:56:21.850Z,18.60
2024-04-30T19:58:56.782Z,18.50
2024-04-30T20:01:28.797Z,18.40
2024-04-30T20:03:58.342Z,18.20
2024-04-30T20:06:26.743Z,18.20
2024-04-30T20:08:54.296Z,18.20
2024-04-30T20:11:25.046Z,18.00
2024-04-30T20:13:53.573Z,18.00
2024-04-30T20:16:21.198Z,17.90
2024-04-30T20:18:49.697Z,17.80
2024-04-30T20:21:17.612Z,17.80
2024-04-30T20:23:45.456Z,17.80
2024-04-30T20:26:13.143Z,17.80
2024-04-30T20:28:40.921Z,17.80
2024-04-30T20:31:08.533Z,17.80
2024-04-30T20:33:36.208Z,17.70
2024-04-30T20:36:03.959Z,17.60
2024-04-30T20:38:32.684Z,17.60
2024-04-30T20:41:00.210Z,17.60
2024-04-30T20:43:27.742Z,17.60
2024-04-30T20:45:55.430Z,17.60
2024-04-30T20:48:23.275Z,17.60
2024-04-30T20:50:50.923Z,17.50
2024-04-30T20:53:18.397Z,17.50
2024-04-30T20:55:45.905Z,17.50
2024-04-30T20:58:13.403Z,17.40
2024-04-30T21:00:41.054Z,17.40
2024-04-30T21:03:09.026Z,17.40
2024-04-30T21:05:36.584Z,17.40
2024-04-30T21:08:04.531Z,17.30
2024-04-30T21:10:32.033Z,17.30
2024-04-30T21:13:00.068Z,17.30
2024-04-30T21:15:27.592Z,17.30
2024-04-30T21:17:55.232Z,17.20
2024-04-30T21:20:22.823Z,17.20
2024-04-30T21:22:50.757Z,17.20
2024-04-30T21:25:18.271Z,17.10
2024-04-30T21:27:45.821Z,17.10
2024-04-30T21:30:13.564Z,17.00
2024-04-30T21:32:41.228Z,17.00
2024-04-30T21:35:13.195Z,16.90
2024-04-30T21:37:41.288Z,16.90
2024-04-30T21:40:09.971Z,16.90
2024-04-30T21:42:37.940Z,16.90
2024-04-30T21:45:05.933Z,16.80
2024-04-30T21:47:33.537Z,16.70
2024-04-30T21:50:01.131Z,16.60
2024-04-30T21:52:28.773Z,16.50
2024-04-30T21:54:56.333Z,16.40
2024-04-30T21:57:23.927Z,16.40
2024-04-30T21:59:51.473Z,16.40
2024-04-30T22:02:18.986Z,16.40
2024-04-30T22:04:46.652Z,16.40
2024-04-30T22:07:16.903Z,16.50
2024-04-30T22:09:45.147Z,16.50
2024-04-30T22:12:12.860Z,16.50
2024-04-30T22:14:40.368Z,16.40
2024-04-30T22:17:07.925Z,16.40
2024-04-30T22:19:35.504Z,16.40
2024-04-30T22:22:03.106Z,16.30
2024-04-30T22:24:30.831Z,16.30
2024-04-30T22:26:58.378Z,16.30
2024-04-30T22:29:25.871Z,16.20
2024-04-30T22:31:53.413Z,16.00
2024-04-30T22:34:21.021Z,16.00
2024-04-30T22:36:48.678Z,15.90
2024-04-30T22:39:16.196Z,15.90
2024-04-30T22:41:43.718Z,15.90
2024-04-30T22:44:11.269Z,15.80
2024-04-30T22:46:38.773Z,15.90
2024-04-30T22:49:06.329Z,15.90
2024-04-30T22:51:33.968Z,15.90
2024-04-30T22:54:01.634Z,15.80
2024-04-30T22:56:32.240Z,15.70
2024-04-30T22:59:01.379Z,15.70
2024-04-30T23:01:29.009Z,15.60
2024-04-30T23:03:56.703Z,15.50
2024-04-30T23:06:24.264Z,15.50
2024-04-30T23:08:51.780Z,15.50
2024-04-30T23:11:19.358Z,15.50
2024-04-30T23:13:46.899Z,15.50
2024-04-30T23:16:14.501Z,15.50
2024-04-30T23:18:42.106Z,15.60
2024-04-30T23:21:10.929Z,15.50
2024-04-30T23:23:38.487Z,15.50
2024-04-30T23:26:08.041Z,15.40
2024-04-30T23:28:35.527Z,15.40
2024-04-30T23:31:03.507Z,15.40
2024-04-30T23:33:31.238Z,15.30
2024-04-30T23:35:58.776Z,15.30
2024-04-30T23:38:26.274Z,15.30
2024-04-30T23:40:53.862Z,15.20
2024-04-30T23:43:21.505Z,15.20
2024-04-30T23:45:49.027Z,15.20
2024-04-30T23:48:16.555Z,15.20
2024-04-30T23:50:44.033Z,15.10
2024-04-30T23:53:11.627Z,15.00
2024-04-30T23:55:39.186Z,14.70
2024-04-30T23:58:06.701Z,14.40
